createdAt,value
2022-12-04T00:00:13.166Z,52.74
2022-12-04T00:06:59.275Z,52.91
2022-12-04T00:13:47.451Z,53.05
2022-12-04T00:20:32.874Z,53.08
2022-12-04T00:27:18.299Z,52.89
2022-12-04T00:34:08.314Z,53.29
2022-12-04T00:40:55.098Z,53.26
2022-12-04T00:47:40.573Z,53.21
2022-12-04T00:54:28.856Z,53.44
2022-12-04T01:01:17.623Z,53.47
2022-12-04T01:08:03.248Z,53.38
2022-12-04T01:14:51.667Z,53.43
2022-12-04T01:21:37.182Z,53.50
2022-12-04T01:28:23.160Z,53.41
2022-12-04T01:35:12.264Z,53.58
2022-12-04T01:41:57.745Z,53.42
2022-12-04T01:48:48.959Z,53.63
2022-12-04T01:55:37.452Z,53.33
2022-12-04T02:02:29.416Z,53.13
2022-12-04T02:09:15.094Z,52.98
2022-12-04T02:16:17.103Z,53.21
2022-12-04T02:23:37.307Z,53.15
2022-12-04T02:30:25.715Z,53.44
2022-12-04T02:37:17.488Z,53.36
2022-12-04T02:44:10.375Z,53.24
2022-12-04T02:51:01.104Z,53.32
2022-12-04T02:57:52.399Z,53.28
2022-12-04T03:04:39.298Z,53.21
2022-12-04T03:11:28.351Z,52.86
2022-12-04T03:18:21.531Z,53.19
2022-12-04T03:25:09.157Z,53.04
2022-12-04T03:32:05.282Z,53.26
2022-12-04T03:38:58.259Z,53.14
2022-12-04T04:06:50.524Z,53.05
2022-12-04T04:13:54.574Z,53.09
2022-12-04T04:20:58.884Z,53.04
2022-12-04T04:27:54.639Z,53.15
2022-12-04T04:34:48.379Z,52.93
2022-12-04T04:41:43.344Z,52.96
2022-12-04T04:48:35.677Z,53.04
2022-12-04T04:55:23.341Z,52.74
2022-12-04T05:02:08.813Z,52.61
2022-12-04T05:08:56.863Z,52.84
2022-12-04T05:15:43.020Z,52.53
2022-12-04T05:22:31.836Z,52.56
2022-12-04T05:29:19.832Z,52.50
2022-12-04T05:36:09.559Z,52.55
2022-12-04T05:42:54.923Z,52.54
2022-12-04T05:49:42.962Z,52.61
2022-12-04T05:56:28.495Z,52.63
2022-12-04T06:03:14.046Z,52.53
2022-12-04T06:10:02.377Z,52.47
2022-12-04T06:16:49.997Z,52.59
2022-12-04T06:23:35.470Z,52.54
2022-12-04T06:30:23.603Z,52.60
2022-12-04T06:37:09.523Z,52.40
2022-12-04T06:43:55.384Z,52.29
2022-12-04T06:50:43.689Z,51.97
2022-12-04T06:57:29.143Z,52.08
2022-12-04T07:04:14.532Z,52.26
2022-12-04T07:11:05.943Z,52.48
2022-12-04T07:17:51.500Z,52.28
2022-12-04T07:24:37.519Z,52.52
2022-12-04T07:31:28.337Z,52.56
2022-12-04T07:38:13.831Z,52.70
2022-12-04T07:44:59.327Z,52.62
2022-12-04T07:51:47.320Z,52.68
2022-12-04T07:58:32.765Z,52.65
2022-12-04T08:05:18.529Z,52.55
2022-12-04T08:12:06.749Z,52.45
2022-12-04T08:18:52.307Z,52.47
2022-12-04T08:25:38.123Z,52.30
2022-12-04T08:32:26.953Z,52.51
2022-12-04T08:39:13.850Z,52.48
2022-12-04T08:46:00.025Z,52.08
2022-12-04T08:52:48.570Z,52.65
2022-12-04T08:59:34.153Z,52.70
2022-12-04T09:06:20.368Z,52.74
2022-12-04T09:13:08.959Z,52.69
2022-12-04T09:19:59.244Z,52.89
2022-12-04T09:26:46.444Z,52.67
2022-12-04T09:33:35.443Z,52.77
2022-12-04T09:40:37.250Z,52.99
2022-12-04T09:47:27.952Z,52.81
2022-12-04T09:54:21.044Z,53.00
2022-12-04T10:01:08.195Z,52.82
2022-12-04T10:08:08.628Z,52.69
2022-12-04T10:15:15.236Z,52.80
2022-12-04T10:22:14.811Z,52.81
2022-12-04T10:29:07.275Z,52.70
2022-12-04T10:35:57.608Z,52.66
2022-12-04T10:42:52.664Z,52.59
2022-12-04T10:49:40.662Z,52.69
2022-12-04T10:56:30.135Z,52.74
2022-12-04T11:03:28.778Z,52.87
2022-12-04T11:10:29.603Z,52.96
2022-12-04T11:17:22.490Z,53.06
2022-12-04T11:24:08.781Z,53.06
2022-12-04T11:30:57.429Z,53.15
2022-12-04T11:37:45.763Z,53.25
2022-12-04T11:44:34.138Z,53.57
2022-12-04T11:51:32.574Z,53.43
2022-12-04T11:58:42.456Z,53.48
2022-12-04T12:06:00.245Z,53.55
2022-12-04T12:13:02.344Z,53.42
2022-12-04T12:20:18.196Z,53.32
2022-12-04T12:27:28.245Z,53.28
2022-12-04T12:34:19.306Z,53.28
2022-12-04T12:41:13.651Z,53.34
2022-12-04T12:48:03.554Z,53.26
2022-12-04T12:54:57.313Z,53.11
2022-12-04T13:01:55.964Z,53.29
2022-12-04T13:08:51.079Z,52.97
2022-12-04T13:15:44.651Z,52.96
2022-12-04T13:22:42.687Z,53.24
2022-12-04T13:29:48.824Z,53.22
2022-12-04T13:37:04.832Z,52.88
2022-12-04T13:43:54.157Z,53.21
2022-12-04T13:50:42.033Z,52.96
2022-12-04T13:57:28.297Z,52.87
2022-12-04T14:04:28.990Z,53.07
2022-12-04T14:11:20.109Z,52.78
2022-12-04T14:18:09.858Z,52.78
2022-12-04T14:25:11.110Z,52.79
2022-12-04T14:31:59.045Z,52.62
2022-12-04T14:38:48.867Z,52.99
2022-12-04T14:45:48.419Z,52.74
2022-12-04T14:52:41.928Z,52.74
2022-12-04T14:59:37.363Z,52.78
2022-12-04T15:06:30.936Z,53.20
2022-12-04T15:13:21.480Z,53.28
2022-12-04T15:20:19.995Z,53.07
2022-12-04T15:27:10.260Z,53.17
2022-12-04T15:34:00.848Z,53.08
2022-12-04T15:40:55.859Z,53.38
2022-12-04T15:47:58.247Z,53.44
2022-12-04T15:54:47.331Z,53.49
2022-12-04T16:01:43.295Z,53.62
2022-12-04T16:08:35.899Z,53.75
2022-12-04T16:15:21.372Z,53.83
2022-12-04T16:22:20.363Z,53.76
2022-12-04T16:29:08.716Z,53.86
2022-12-04T16:35:54.117Z,53.65
2022-12-04T16:42:39.733Z,53.73
2022-12-04T16:49:27.788Z,53.60
2022-12-04T16:56:13.924Z,53.73
2022-12-04T17:03:00.117Z,53.85
2022-12-04T17:09:48.693Z,53.88
2022-12-04T17:16:34.114Z,53.72
2022-12-04T17:23:19.736Z,53.67
2022-12-04T17:30:10.084Z,53.74
2022-12-04T17:36:56.356Z,53.75
2022-12-04T17:43:41.815Z,53.95
2022-12-04T17:50:30.227Z,53.71
2022-12-04T17:57:16.966Z,53.33
2022-12-04T18:04:04.723Z,53.31
2022-12-04T18:10:53.169Z,53.24
2022-12-04T18:17:39.758Z,53.44
2022-12-04T18:24:26.657Z,53.44
2022-12-04T18:31:15.088Z,53.09
2022-12-04T18:38:00.572Z,53.58
2022-12-04T18:44:46.279Z,54.06
2022-12-04T18:51:39.649Z,54.34
2022-12-04T18:58:25.212Z,54.36
2022-12-04T19:05:11.566Z,54.35
2022-12-04T19:11:59.684Z,54.32
2022-12-04T19:18:46.831Z,54.31
2022-12-04T19:25:32.063Z,53.71
2022-12-04T19:32:20.066Z,54.47
2022-12-04T19:39:08.804Z,54.59
2022-12-04T19:45:54.274Z,54.82
2022-12-04T19:52:42.655Z,54.84
2022-12-04T19:59:33.034Z,54.72
2022-12-04T20:06:24.944Z,54.86
2022-12-04T20:13:14.475Z,54.88
2022-12-04T20:19:59.926Z,54.60
2022-12-04T20:26:47.604Z,54.65
2022-12-04T20:33:35.651Z,54.82
2022-12-04T20:40:21.557Z,54.85
2022-12-04T20:47:07.068Z,54.80
2022-12-04T20:53:58.062Z,54.66
2022-12-04T21:00:43.949Z,54.48
2022-12-04T21:07:29.522Z,54.34
2022-12-04T21:14:34.394Z,54.32
2022-12-04T21:21:20.505Z,54.47
2022-12-04T21:28:05.955Z,54.27
2022-12-04T21:34:54.277Z,54.30
2022-12-04T21:41:52.256Z,54.15
2022-12-04T21:48:39.299Z,54.12
2022-12-04T21:55:27.588Z,54.32
2022-12-04T22:02:14.164Z,54.25
2022-12-04T22:08:59.668Z,54.04
2022-12-04T22:15:47.795Z,54.23
2022-12-04T22:22:33.284Z,54.04
2022-12-04T22:29:48.652Z,54.07
2022-12-04T22:36:30.793Z,54.08
2022-12-04T22:43:16.219Z,53.90
2022-12-04T22:50:01.611Z,54.00
2022-12-04T22:56:49.669Z,54.09
2022-12-04T23:03:35.234Z,54.20
2022-12-04T23:10:20.766Z,54.02
2022-12-04T23:17:08.833Z,54.11
2022-12-04T23:23:57.192Z,54.16
2022-12-04T23:30:49.156Z,54.44
2022-12-04T23:37:37.209Z,54.09
2022-12-04T23:44:22.668Z,54.18
2022-12-04T23:51:08.307Z,54.23
2022-12-04T23:57:56.810Z,54.48
